createdAt,value
2023-01-11T00:01:56.635Z,1.63
2023-01-11T00:04:30.871Z,1.62
2023-01-11T00:07:02.754Z,1.74
2023-01-11T00:09:34.749Z,1.64
2023-01-11T00:12:06.696Z,1.51
2023-01-11T00:14:38.604Z,1.67
2023-01-11T00:17:10.762Z,1.81
2023-01-11T00:19:42.705Z,1.53
2023-01-11T00:22:14.708Z,1.67
2023-01-11T00:24:46.651Z,1.93
2023-01-11T00:27:18.497Z,1.77
2023-01-11T00:29:50.498Z,1.93
2023-01-11T00:32:22.558Z,1.95
2023-01-11T00:34:54.841Z,2.02
2023-01-11T00:37:26.689Z,1.77
2023-01-11T00:39:58.567Z,1.93
2023-01-11T00:42:48.900Z,1.94
2023-01-11T00:45:39.430Z,2.04
2023-01-11T00:48:11.420Z,2.00
2023-01-11T00:50:43.363Z,1.85
2023-01-11T00:53:19.867Z,1.97
2023-01-11T00:55:51.786Z,1.99
2023-01-11T00:58:23.748Z,1.81
2023-01-11T01:00:56.035Z,1.85
2023-01-11T01:03:27.965Z,2.02
2023-01-11T01:05:59.862Z,1.89
2023-01-11T01:08:31.781Z,1.84
2023-01-11T01:11:03.674Z,1.93
2023-01-11T01:13:54.150Z,1.84
2023-01-11T01:16:26.199Z,1.90
2023-01-11T01:19:00.218Z,1.89
2023-01-11T01:21:32.045Z,1.82
2023-01-11T01:24:04.013Z,1.91
2023-01-11T01:26:36.200Z,1.88
2023-01-11T01:29:08.798Z,1.76
2023-01-11T01:31:41.439Z,1.78
2023-01-11T01:34:14.075Z,1.89
2023-01-11T01:36:46.026Z,1.87
2023-01-11T01:39:18.025Z,1.81
2023-01-11T01:41:50.065Z,1.88
2023-01-11T01:44:52.901Z,1.95
2023-01-11T01:47:32.733Z,2.00
2023-01-11T01:50:13.844Z,1.83
2023-01-11T01:52:50.046Z,1.83
2023-01-11T01:55:30.491Z,1.82
2023-01-11T01:58:07.334Z,1.95
2023-01-11T02:00:41.167Z,1.98
2023-01-11T02:03:21.028Z,1.34
2023-01-11T02:05:54.468Z,1.99
2023-01-11T02:08:38.360Z,1.94
2023-01-11T02:11:32.991Z,1.80
2023-01-11T02:14:09.632Z,1.78
2023-01-11T02:16:41.684Z,1.53
2023-01-11T02:19:27.658Z,1.78
2023-01-11T02:22:28.227Z,1.75
2023-01-11T02:25:33.216Z,1.75
2023-01-11T02:28:09.166Z,1.87
2023-01-11T02:31:20.679Z,1.76
2023-01-11T02:34:26.559Z,1.72
2023-01-11T02:37:10.494Z,1.83
2023-01-11T02:39:57.998Z,1.81
2023-01-11T02:42:54.469Z,2.05
2023-01-11T02:45:42.651Z,2.11
2023-01-11T02:48:20.163Z,2.20
2023-01-11T02:51:02.832Z,2.23
2023-01-11T02:53:55.903Z,2.23
2023-01-11T02:56:32.562Z,2.15
2023-01-11T02:59:06.020Z,2.26
2023-01-11T03:01:48.874Z,2.35
2023-01-11T03:04:25.284Z,2.35
2023-01-11T03:07:42.956Z,2.29
2023-01-11T03:10:33.307Z,2.03
2023-01-11T03:13:34.325Z,2.30
2023-01-11T03:16:12.404Z,2.37
2023-01-11T03:19:11.792Z,2.37
2023-01-11T03:22:18.957Z,2.13
2023-01-11T03:25:14.747Z,2.00
2023-01-11T03:28:02.860Z,2.13
2023-01-11T03:30:49.300Z,1.93
2023-01-11T03:33:31.129Z,1.94
2023-01-11T03:36:12.097Z,2.07
2023-01-11T03:38:56.307Z,2.03
2023-01-11T03:41:33.244Z,2.06
2023-01-11T03:44:14.965Z,2.21
2023-01-11T03:47:30.516Z,1.82
2023-01-11T03:53:47.876Z,1.92
2023-01-11T03:56:27.746Z,1.91
2023-01-11T04:02:02.777Z,2.22
2023-01-11T04:05:03.455Z,1.37
2023-01-11T04:07:56.803Z,1.40
2023-01-11T04:19:50.429Z,2.04
2023-01-11T04:22:56.004Z,1.06
2023-01-11T04:26:08.543Z,1.77
2023-01-11T04:29:06.067Z,1.51
2023-01-11T04:31:48.063Z,1.61
2023-01-11T04:34:38.330Z,1.52
2023-01-11T04:40:36.841Z,1.94
2023-01-11T04:43:20.120Z,1.23
2023-01-11T04:46:19.831Z,1.57
2023-01-11T04:55:14.633Z,1.42
2023-01-11T04:57:47.659Z,1.53
2023-01-11T05:00:20.256Z,1.46
2023-01-11T05:02:57.118Z,1.53
2023-01-11T05:05:34.585Z,1.51
2023-01-11T05:08:07.227Z,1.12
2023-01-11T05:10:44.302Z,1.73
2023-01-11T05:13:17.939Z,1.42
2023-01-11T05:15:49.921Z,1.52
2023-01-11T05:18:22.533Z,1.44
2023-01-11T05:20:54.557Z,1.49
2023-01-11T05:23:26.641Z,1.72
2023-01-11T05:26:02.370Z,1.33
2023-01-11T05:28:39.503Z,0.97
2023-01-11T05:31:12.170Z,1.53
2023-01-11T05:33:44.546Z,1.06
2023-01-11T05:36:19.050Z,1.68
2023-01-11T05:38:52.372Z,1.45
2023-01-11T05:41:26.749Z,1.27
2023-01-11T05:44:17.108Z,1.27
2023-01-11T05:46:49.177Z,1.62
2023-01-11T05:49:21.346Z,1.70
2023-01-11T05:51:53.314Z,1.61
2023-01-11T05:54:25.278Z,1.57
2023-01-11T05:56:58.187Z,1.66
2023-01-11T05:59:32.139Z,1.22
2023-01-11T06:02:04.854Z,1.54
2023-01-11T06:04:37.031Z,1.46
2023-01-11T06:07:10.373Z,1.41
2023-01-11T06:09:42.299Z,1.58
2023-01-11T06:12:14.416Z,1.11
2023-01-11T06:14:46.365Z,1.21
2023-01-11T06:17:18.399Z,1.02
2023-01-11T06:19:50.374Z,1.05
2023-01-11T06:22:22.541Z,1.13
2023-01-11T06:24:54.622Z,0.93
2023-01-11T06:27:29.621Z,1.51
2023-01-11T06:30:01.625Z,1.58
2023-01-11T06:32:33.587Z,1.47
2023-01-11T06:35:06.068Z,1.44
2023-01-11T06:37:38.042Z,1.51
2023-01-11T06:40:10.766Z,1.39
2023-01-11T06:42:42.710Z,1.46
2023-01-11T06:45:14.787Z,1.45
2023-01-11T06:47:46.714Z,1.39
2023-01-11T06:50:18.811Z,1.41
2023-01-11T06:52:58.674Z,1.35
2023-01-11T06:55:31.379Z,1.16
2023-01-11T06:58:03.392Z,1.48
2023-01-11T07:00:35.734Z,1.15
2023-01-11T07:03:07.916Z,1.56
2023-01-11T07:05:40.846Z,1.53
2023-01-11T07:08:13.283Z,1.54
2023-01-11T07:10:46.047Z,1.53
2023-01-11T07:13:20.997Z,1.50
2023-01-11T07:15:54.506Z,1.44
2023-01-11T07:18:26.600Z,1.67
2023-01-11T07:20:58.547Z,1.64
2023-01-11T07:23:30.567Z,1.67
2023-01-11T07:26:03.372Z,1.70
2023-01-11T07:28:35.416Z,1.56
2023-01-11T07:31:07.399Z,1.22
2023-01-11T07:33:39.544Z,1.17
2023-01-11T07:36:11.598Z,1.73
2023-01-11T07:38:43.571Z,1.58
2023-01-11T07:41:42.436Z,1.05
2023-01-11T07:44:33.760Z,1.91
2023-01-11T08:01:46.024Z,1.94
2023-01-11T08:12:01.067Z,1.69
2023-01-11T08:15:00.578Z,1.89
2023-01-11T08:20:58.998Z,1.50
2023-01-11T08:23:39.268Z,1.54
2023-01-11T08:26:16.466Z,1.61
2023-01-11T08:28:48.782Z,1.70
2023-01-11T08:31:21.812Z,1.70
2023-01-11T08:33:54.032Z,1.79
2023-01-11T08:36:39.018Z,1.25
2023-01-11T08:42:06.702Z,1.28
2023-01-11T08:44:38.721Z,1.55
2023-01-11T08:47:10.788Z,2.09
2023-01-11T08:49:43.396Z,1.87
2023-01-11T08:52:15.357Z,1.75
2023-01-11T08:54:47.424Z,2.08
2023-01-11T08:57:19.400Z,1.76
2023-01-11T08:59:51.368Z,2.01
2023-01-11T09:02:23.385Z,2.06
2023-01-11T09:04:55.295Z,2.03
2023-01-11T09:07:27.320Z,2.23
2023-01-11T09:09:59.286Z,2.40
2023-01-11T09:12:33.057Z,2.32
2023-01-11T09:15:09.189Z,2.27
2023-01-11T09:17:41.215Z,2.26
2023-01-11T09:20:13.924Z,2.18
2023-01-11T09:22:53.427Z,1.96
2023-01-11T09:25:25.770Z,2.08
2023-01-11T09:27:57.775Z,1.99
2023-01-11T09:30:29.995Z,1.83
2023-01-11T09:33:01.997Z,1.94
2023-01-11T09:35:42.637Z,1.76
2023-01-11T09:38:14.789Z,2.11
2023-01-11T09:40:57.344Z,2.47
2023-01-11T09:43:31.547Z,2.18
2023-01-11T09:46:08.631Z,2.34
2023-01-11T09:48:52.879Z,2.54
2023-01-11T09:51:33.584Z,2.40
2023-01-11T09:54:10.431Z,2.44
2023-01-11T09:56:52.639Z,2.01
2023-01-11T10:00:05.330Z,2.44
2023-01-11T10:03:14.640Z,2.43
2023-01-11T10:05:51.743Z,2.42
2023-01-11T10:18:27.592Z,2.39
2023-01-11T10:18:48.836Z,2.39
2023-01-11T10:21:23.764Z,2.43
2023-01-11T10:24:05.364Z,2.38
2023-01-11T10:26:40.416Z,2.51
2023-01-11T10:29:58.787Z,2.56
2023-01-11T10:32:48.525Z,2.53
2023-01-11T10:36:10.634Z,2.55
2023-01-11T10:38:58.019Z,2.65
2023-01-11T10:42:06.162Z,2.69
2023-01-11T10:44:45.191Z,2.63
2023-01-11T10:47:22.413Z,2.65
2023-01-11T10:50:05.929Z,2.64
2023-01-11T10:53:06.812Z,2.60
2023-01-11T10:55:46.078Z,2.67
2023-01-11T10:58:24.017Z,2.76
2023-01-11T11:01:24.666Z,2.73
2023-01-11T11:04:15.383Z,2.82
2023-01-11T11:06:50.295Z,2.87
2023-01-11T11:09:41.069Z,2.86
2023-01-11T11:12:22.119Z,2.88
2023-01-11T11:15:12.270Z,2.93
2023-01-11T11:17:51.251Z,2.88
2023-01-11T11:20:26.240Z,2.93
2023-01-11T11:22:58.507Z,2.84
2023-01-11T11:25:33.635Z,2.86
2023-01-11T11:28:08.191Z,3.05
2023-01-11T11:30:43.706Z,3.06
2023-01-11T11:33:25.259Z,3.06
2023-01-11T11:36:09.231Z,2.94
2023-01-11T11:39:00.810Z,3.01
2023-01-11T11:41:47.331Z,2.88
2023-01-11T11:44:29.159Z,2.81
2023-01-11T11:47:15.600Z,2.94
2023-01-11T11:49:48.110Z,3.00
2023-01-11T11:52:20.320Z,3.01
2023-01-11T11:54:58.393Z,3.05
2023-01-11T11:57:39.150Z,2.99
2023-01-11T12:00:28.834Z,3.04
2023-01-11T12:03:17.457Z,2.96
2023-01-11T12:06:04.569Z,3.10
2023-01-11T12:08:36.821Z,2.94
2023-01-11T12:11:30.361Z,2.85
2023-01-11T12:14:04.340Z,2.87
2023-01-11T12:16:40.836Z,2.88
2023-01-11T12:19:46.191Z,2.87
2023-01-11T12:22:23.750Z,2.86
2023-01-11T12:25:14.469Z,2.97
2023-01-11T12:28:09.083Z,2.93
2023-01-11T12:31:11.241Z,2.89
2023-01-11T12:33:44.765Z,2.64
2023-01-11T12:36:42.896Z,2.79
2023-01-11T12:39:37.916Z,2.83
2023-01-11T12:42:31.314Z,2.83
2023-01-11T12:45:39.647Z,2.85
2023-01-11T12:48:23.799Z,2.92
2023-01-11T12:51:10.864Z,3.01
2023-01-11T12:54:04.428Z,2.95
2023-01-11T12:56:47.471Z,2.90
2023-01-11T13:00:24.105Z,3.02
2023-01-11T13:03:16.677Z,2.73
2023-01-11T13:05:57.331Z,2.93
2023-01-11T13:09:15.999Z,2.97
2023-01-11T13:12:05.269Z,2.98
2023-01-11T13:14:37.227Z,3.05
2023-01-11T13:17:27.397Z,3.05
2023-01-11T13:20:23.641Z,3.11
2023-01-11T13:23:19.535Z,3.12
2023-01-11T13:25:53.276Z,3.15
2023-01-11T13:28:37.023Z,3.08
2023-01-11T13:31:12.990Z,3.10
2023-01-11T13:33:53.055Z,3.05
2023-01-11T13:36:30.877Z,3.12
2023-01-11T13:39:28.581Z,3.10
2023-01-11T13:42:04.751Z,2.94
2023-01-11T13:44:51.889Z,2.98
2023-01-11T13:47:46.813Z,2.95
2023-01-11T13:50:27.224Z,2.92
2023-01-11T13:53:14.140Z,2.92
2023-01-11T13:56:09.235Z,2.94
2023-01-11T13:59:01.896Z,2.84
2023-01-11T14:01:57.037Z,2.83
2023-01-11T14:04:57.855Z,2.85
2023-01-11T14:07:44.882Z,2.81
2023-01-11T14:10:35.434Z,2.86
2023-01-11T14:14:03.719Z,2.79
2023-01-11T14:16:38.388Z,2.73
2023-01-11T14:19:20.413Z,2.55
2023-01-11T14:22:00.482Z,2.65
2023-01-11T14:24:36.178Z,2.54
2023-01-11T14:27:35.650Z,2.61
2023-01-11T14:30:31.751Z,2.51
2023-01-11T14:33:41.315Z,2.69
2023-01-11T14:36:39.520Z,2.71
2023-01-11T14:39:41.294Z,2.74
2023-01-11T14:42:35.734Z,2.79
2023-01-11T14:45:29.425Z,2.78
2023-01-11T14:48:04.187Z,2.85
2023-01-11T14:51:14.489Z,2.84
2023-01-11T14:54:11.086Z,2.82
2023-01-11T14:56:43.037Z,2.88
2023-01-11T14:59:36.068Z,2.82
2023-01-11T15:02:23.487Z,2.87
2023-01-11T15:04:55.909Z,2.97
2023-01-11T15:07:30.983Z,2.99
2023-01-11T15:10:25.295Z,2.93
2023-01-11T15:12:58.634Z,3.01
2023-01-11T15:15:50.675Z,2.87
2023-01-11T15:18:26.232Z,2.74
2023-01-11T15:21:04.179Z,2.97
2023-01-11T15:23:38.611Z,2.89
2023-01-11T15:26:10.970Z,2.92
2023-01-11T15:28:53.367Z,2.94
2023-01-11T15:31:44.383Z,2.85
2023-01-11T15:34:25.145Z,2.91
2023-01-11T15:37:03.920Z,2.87
2023-01-11T15:39:44.660Z,2.85
2023-01-11T15:42:16.444Z,2.86
2023-01-11T15:45:12.748Z,2.91
2023-01-11T15:48:00.058Z,2.93
2023-01-11T15:50:54.066Z,2.98
2023-01-11T15:53:50.658Z,3.00
2023-01-11T15:56:28.716Z,3.02
2023-01-11T15:59:38.554Z,3.02
2023-01-11T16:02:13.490Z,2.99
2023-01-11T16:04:53.616Z,3.05
2023-01-11T16:08:02.576Z,2.91
2023-01-11T16:10:50.636Z,3.09
2023-01-11T16:13:48.960Z,2.87
2023-01-11T16:16:29.528Z,3.16
2023-01-11T16:19:22.017Z,3.09
2023-01-11T16:21:58.205Z,2.98
2023-01-11T16:24:37.996Z,2.89
2023-01-11T16:27:27.455Z,3.05
2023-01-11T16:30:00.304Z,3.08
2023-01-11T16:32:35.643Z,3.07
2023-01-11T16:35:22.989Z,3.16
2023-01-11T16:38:01.722Z,3.20
2023-01-11T16:40:40.813Z,3.14
2023-01-11T16:43:18.513Z,3.22
2023-01-11T16:45:54.450Z,3.18
2023-01-11T16:48:27.413Z,3.20
2023-01-11T16:51:19.695Z,3.26
2023-01-11T16:53:58.265Z,3.27
2023-01-11T16:56:35.649Z,3.32
2023-01-11T16:59:13.803Z,3.35
2023-01-11T17:01:48.597Z,3.28
2023-01-11T17:04:35.930Z,3.37
2023-01-11T17:07:22.218Z,3.38
2023-01-11T17:09:54.569Z,3.32
2023-01-11T17:12:27.313Z,3.32
2023-01-11T17:15:10.113Z,3.34
2023-01-11T17:17:42.163Z,3.29
2023-01-11T17:20:22.067Z,3.33
2023-01-11T17:22:54.293Z,3.34
2023-01-11T17:25:43.856Z,3.41
2023-01-11T17:28:19.776Z,3.33
2023-01-11T17:30:53.875Z,3.22
2023-01-11T17:33:29.696Z,3.11
2023-01-11T17:36:02.775Z,2.72
2023-01-11T17:38:35.144Z,3.45
2023-01-11T17:41:28.314Z,3.38
2023-01-11T17:44:19.247Z,3.36
2023-01-11T17:46:51.078Z,3.49
2023-01-11T17:49:24.688Z,3.26
2023-01-11T17:51:56.681Z,3.40
2023-01-11T17:54:29.208Z,3.47
2023-01-11T17:57:01.592Z,2.92
2023-01-11T17:59:34.397Z,3.38
2023-01-11T18:02:16.024Z,3.47
2023-01-11T18:04:59.444Z,3.51
2023-01-11T18:07:31.884Z,3.30
2023-01-11T18:10:04.248Z,3.33
2023-01-11T18:12:36.431Z,3.45
2023-01-11T18:15:18.534Z,3.42
2023-01-11T18:17:57.106Z,3.51
2023-01-11T18:20:36.463Z,3.45
2023-01-11T18:23:08.370Z,3.49
2023-01-11T18:25:40.871Z,3.43
2023-01-11T18:28:12.952Z,3.44
2023-01-11T18:30:54.105Z,2.96
2023-01-11T18:33:29.788Z,3.56
2023-01-11T18:36:04.228Z,3.55
2023-01-11T18:38:36.595Z,3.48
2023-01-11T18:41:28.880Z,3.52
2023-01-11T18:44:01.599Z,3.50
2023-01-11T18:46:38.092Z,3.51
2023-01-11T18:49:10.131Z,3.05
2023-01-11T18:51:45.483Z,2.91
2023-01-11T18:54:22.385Z,3.02
2023-01-11T18:56:54.481Z,2.67
2023-01-11T18:59:26.430Z,2.98
2023-01-11T19:02:22.635Z,3.27
2023-01-11T19:04:56.836Z,3.15
2023-01-11T19:07:28.780Z,3.04
2023-01-11T19:10:00.715Z,2.98
2023-01-11T19:12:32.874Z,2.85
2023-01-11T19:15:05.191Z,2.78
2023-01-11T19:17:39.573Z,2.42
2023-01-11T19:20:13.688Z,2.66
2023-01-11T19:22:45.646Z,2.51
2023-01-11T19:25:17.802Z,2.67
2023-01-11T19:27:54.105Z,2.39
2023-01-11T19:30:27.174Z,2.44
2023-01-11T19:32:59.133Z,2.07
2023-01-11T19:35:31.117Z,2.66
2023-01-11T19:38:03.107Z,2.38
2023-01-11T19:40:41.045Z,2.57
2023-01-11T19:43:13.494Z,2.60
2023-01-11T19:45:48.621Z,2.22
2023-01-11T19:48:23.580Z,2.22
2023-01-11T19:51:11.974Z,2.62
2023-01-11T19:53:43.919Z,2.63
2023-01-11T19:56:15.865Z,2.52
2023-01-11T19:58:47.824Z,2.44
2023-01-11T20:01:19.798Z,2.59
2023-01-11T20:03:51.945Z,2.52
2023-01-11T20:06:26.249Z,2.34
2023-01-11T20:08:58.742Z,2.54
2023-01-11T20:11:33.305Z,2.13
2023-01-11T20:14:07.461Z,1.80
2023-01-11T20:16:39.505Z,2.20
2023-01-11T20:19:19.388Z,2.09
2023-01-11T20:22:00.313Z,2.21
2023-01-11T20:24:32.528Z,2.43
2023-01-11T20:27:14.926Z,1.82
2023-01-11T20:30:00.329Z,2.39
2023-01-11T20:32:41.991Z,1.90
2023-01-11T20:35:15.044Z,2.43
2023-01-11T20:37:47.067Z,2.45
2023-01-11T20:40:19.245Z,1.88
2023-01-11T20:42:51.236Z,2.52
2023-01-11T20:45:23.273Z,2.51
2023-01-11T20:48:01.448Z,1.85
2023-01-11T20:50:35.167Z,2.36
2023-01-11T20:53:09.306Z,2.30
2023-01-11T20:55:41.250Z,1.94
2023-01-11T20:58:16.831Z,2.71
2023-01-11T21:00:55.368Z,2.63
2023-01-11T21:03:38.963Z,2.26
2023-01-11T21:06:15.581Z,2.43
2023-01-11T21:08:47.895Z,2.46
2023-01-11T21:11:23.084Z,2.35
2023-01-11T21:16:30.033Z,2.59
2023-01-11T21:19:03.769Z,2.68
2023-01-11T21:21:50.017Z,2.93
2023-01-11T21:24:24.937Z,2.30
2023-01-11T21:27:06.348Z,2.30
2023-01-11T21:29:45.711Z,2.61
2023-01-11T21:32:17.935Z,3.00
2023-01-11T21:34:49.824Z,2.78
2023-01-11T21:37:25.485Z,2.69
2023-01-11T21:40:00.302Z,3.09
2023-01-11T21:42:32.402Z,2.84
2023-01-11T21:45:10.701Z,2.54
2023-01-11T21:47:45.238Z,2.49
2023-01-11T21:50:20.657Z,2.56
2023-01-11T21:52:55.557Z,2.79
2023-01-11T21:55:33.690Z,2.53
2023-01-11T21:58:06.144Z,2.44
2023-01-11T22:00:38.153Z,2.72
2023-01-11T22:03:21.937Z,2.61
2023-01-11T22:05:55.066Z,2.92
2023-01-11T22:08:27.414Z,2.96
2023-01-11T22:11:01.209Z,3.06
2023-01-11T22:13:37.429Z,2.97
2023-01-11T22:16:16.797Z,2.95
2023-01-11T22:18:54.848Z,3.00
2023-01-11T22:21:27.666Z,3.25
2023-01-11T22:24:15.892Z,3.16
2023-01-11T22:27:20.574Z,2.78
2023-01-11T22:29:54.956Z,2.63
2023-01-11T22:32:31.370Z,2.93
2023-01-11T22:35:03.470Z,2.98
2023-01-11T22:37:40.566Z,2.98
2023-01-11T22:40:15.233Z,2.98
2023-01-11T22:42:47.427Z,2.77
2023-01-11T22:45:19.497Z,2.72
2023-01-11T22:48:00.519Z,2.88
2023-01-11T22:50:37.922Z,2.61
2023-01-11T22:53:25.306Z,3.00
2023-01-11T22:56:01.986Z,3.32
2023-01-11T22:58:55.438Z,2.98
2023-01-11T23:01:56.063Z,2.77
2023-01-11T23:04:42.637Z,3.34
2023-01-11T23:07:20.599Z,3.01
2023-01-11T23:09:52.610Z,3.08
2023-01-11T23:12:53.988Z,3.36
2023-01-11T23:15:25.968Z,3.32
2023-01-11T23:18:06.197Z,2.76
2023-01-11T23:20:38.303Z,3.21
2023-01-11T23:23:10.383Z,2.90
2023-01-11T23:25:42.391Z,3.17
2023-01-11T23:28:14.498Z,3.16
2023-01-11T23:30:46.453Z,3.28
2023-01-11T23:33:18.558Z,3.40
2023-01-11T23:36:00.052Z,3.44
2023-01-11T23:38:33.520Z,3.46
2023-01-11T23:41:29.231Z,3.51
2023-01-11T23:44:01.995Z,3.43
2023-01-11T23:46:52.532Z,3.47
2023-01-11T23:49:27.467Z,3.51
2023-01-11T23:52:00.281Z,3.40
2023-01-11T23:54:33.827Z,3.41
2023-01-11T23:57:06.140Z,3.54
2023-01-11T23:59:38.881Z,3.40
